Search for airport 
image banner adimage banner adimage banner ad
image banner ad

4IA3 - Floyd County Memorial Hospital

Located in Charles City, United States

ICAO - 4IA3, IATA -

Data provided by Airmate  

General information

Coordinates: N43°3'4" W92°41'3"
Elevation is 1146 feet MSL.
Magnetic variation is 03° East
View others Airports in Iowa

Operational data

Special qualification required
Current time UTC:
Current local time:
Weather at : KCCY - Northeast Iowa Rgnl ( 6 km )
METAR: KCCY 151035Z AUTO 36007KT 10SM CLR 15/09 A3011 RMK AO2
View NOTAMs / SUP AIP / TFR affecting this airport [VIEW]
Communications frequencies: [VIEW]

Runways:

Airport contact information

Address: Charles City United States

Satellite view of 4IA3